Time;durP1;ratioP1;P1;durP2;ratioP2;P2;SDS_P1;SDS_P2;PMS_P1;PMS_P2;Temp;Humidity;BMP_temperature;BMP_pressure;BME280_temperature;BME280_humidity;BME280_pressure;Samples;Min_cycle;Max_cycle;Signal;HPM_P1;HPM_P2
2022/07/26 00:01:07;;;;;;;3.80;3.40;;;19.50;99.90;;;;;;604720;238;26574;-67
2022/07/26 00:03:34;;;;;;;4.00;3.47;;;19.50;99.90;;;;;;604700;237;26859;-67
2022/07/26 00:06:01;;;;;;;3.55;3.25;;;19.40;99.90;;;;;;604716;235;26589;-67
2022/07/26 00:08:28;;;;;;;3.55;3.25;;;19.40;99.90;;;;;;604730;238;26835;-67
2022/07/26 00:10:56;;;;;;;3.62;3.12;;;19.30;99.90;;;;;;604667;237;26609;-67
2022/07/26 00:13:24;;;;;;;5.25;3.50;;;19.30;99.90;;;;;;604699;238;26832;-67
2022/07/26 00:15:51;;;;;;;3.40;3.10;;;19.30;99.90;;;;;;604785;238;26807;-67
2022/07/26 00:18:18;;;;;;;3.72;2.90;;;19.30;99.90;;;;;;604766;237;26583;-67
2022/07/26 00:20:47;;;;;;;3.87;3.12;;;19.30;99.90;;;;;;604791;237;26931;-67
2022/07/26 00:23:13;;;;;;;3.60;3.25;;;19.30;99.90;;;;;;604673;237;26614;-67
2022/07/26 00:25:40;;;;;;;3.10;2.80;;;19.30;99.90;;;;;;605353;235;26827;-67
2022/07/26 00:28:07;;;;;;;3.70;2.62;;;19.30;99.90;;;;;;606137;236;26577;-67
2022/07/26 00:30:35;;;;;;;3.58;3.25;;;19.40;99.90;;;;;;605727;237;26606;-67
2022/07/26 00:33:03;;;;;;;3.37;2.92;;;19.40;99.90;;;;;;605546;237;26641;-67
2022/07/26 00:35:31;;;;;;;4.00;3.25;;;19.30;99.90;;;;;;605434;237;26582;-67
2022/07/26 00:37:59;;;;;;;4.28;2.87;;;19.30;99.90;;;;;;605560;238;26616;-67
2022/07/26 00:40:26;;;;;;;3.97;2.80;;;19.30;99.90;;;;;;605686;234;26602;-68
2022/07/26 00:42:54;;;;;;;3.05;2.75;;;19.30;99.90;;;;;;605647;238;26591;-68
2022/07/26 00:45:21;;;;;;;3.08;2.62;;;19.20;99.90;;;;;;605387;238;26556;-68
2022/07/26 00:47:49;;;;;;;3.60;2.65;;;19.30;99.90;;;;;;605337;237;26542;-67
2022/07/26 00:50:17;;;;;;;3.72;3.00;;;19.30;99.90;;;;;;605039;234;26586;-68
2022/07/26 00:52:45;;;;;;;3.25;2.72;;;19.30;99.90;;;;;;605045;237;26633;-68
2022/07/26 00:55:12;;;;;;;4.50;3.00;;;19.30;99.90;;;;;;604888;238;26554;-68
2022/07/26 00:57:39;;;;;;;2.70;2.50;;;19.30;99.90;;;;;;605003;237;26590;-67
2022/07/26 01:00:08;;;;;;;3.72;2.70;;;19.20;99.90;;;;;;604927;238;26929;-68
2022/07/26 01:02:35;;;;;;;3.95;3.00;;;19.20;99.90;;;;;;604800;238;26618;-68
2022/07/26 01:05:02;;;;;;;3.20;2.90;;;19.20;99.90;;;;;;604773;238;26789;-67
2022/07/26 01:07:30;;;;;;;2.97;2.67;;;19.20;99.90;;;;;;604727;237;26827;-68
2022/07/26 01:09:57;;;;;;;4.50;2.80;;;19.10;99.90;;;;;;604708;238;26587;-68
2022/07/26 01:12:24;;;;;;;2.72;2.50;;;19.20;99.90;;;;;;604619;235;27288;-68
2022/07/26 01:14:51;;;;;;;3.20;2.40;;;19.20;99.90;;;;;;604730;235;26578;-68
2022/07/26 01:17:18;;;;;;;2.70;2.50;;;19.20;99.90;;;;;;604789;237;26789;-68
2022/07/26 01:19:46;;;;;;;3.00;2.60;;;19.30;99.90;;;;;;604768;237;26578;-67
2022/07/26 01:22:13;;;;;;;2.75;2.53;;;19.30;99.90;;;;;;604671;238;26837;-67
2022/07/26 01:24:40;;;;;;;2.70;2.50;;;19.20;99.90;;;;;;604713;237;26571;-67
2022/07/26 01:27:07;;;;;;;3.65;2.70;;;19.30;99.90;;;;;;604726;238;27134;-67
2022/07/26 01:29:34;;;;;;;3.05;2.75;;;19.30;99.90;;;;;;604701;237;26580;-67
2022/07/26 01:32:02;;;;;;;2.80;2.58;;;19.30;99.90;;;;;;604657;232;26594;-67
2022/07/26 01:34:30;;;;;;;2.70;2.28;;;19.40;99.90;;;;;;604713;238;26564;-66
2022/07/26 01:36:57;;;;;;;2.83;2.62;;;19.40;99.90;;;;;;604945;235;26582;-66
2022/07/26 01:39:25;;;;;;;2.78;2.58;;;19.30;99.90;;;;;;606126;236;26582;-66
2022/07/26 01:41:55;;;;;;;3.08;2.55;;;19.30;99.90;;;;;;605606;234;26636;-66
2022/07/26 01:44:21;;;;;;;4.22;2.50;;;19.30;99.90;;;;;;605440;237;26859;-66
2022/07/26 01:46:48;;;;;;;2.97;2.70;;;19.30;99.90;;;;;;605455;237;26640;-66
2022/07/26 01:49:15;;;;;;;2.40;2.30;;;19.20;99.90;;;;;;605302;235;26844;-66
2022/07/26 01:51:42;;;;;;;3.42;2.80;;;19.20;99.90;;;;;;605248;238;26652;-66
2022/07/26 01:54:09;;;;;;;4.32;2.85;;;19.20;99.90;;;;;;605335;238;26851;-66
2022/07/26 01:56:37;;;;;;;3.03;2.55;;;19.10;99.90;;;;;;605036;237;26642;-67
2022/07/26 01:59:04;;;;;;;3.12;2.75;;;19.10;99.90;;;;;;605015;237;26833;-67
2022/07/26 02:01:31;;;;;;;3.12;2.75;;;19.10;99.90;;;;;;604983;237;26578;-67
2022/07/26 02:03:58;;;;;;;2.75;2.55;;;19.10;99.90;;;;;;604971;237;27261;-67
2022/07/26 02:06:25;;;;;;;3.78;3.17;;;19.10;99.90;;;;;;604998;238;26589;-66
2022/07/26 02:08:53;;;;;;;3.67;3.10;;;19.00;99.90;;;;;;605063;237;26941;-66
2022/07/26 02:11:21;;;;;;;2.97;2.67;;;19.00;99.90;;;;;;605001;232;26546;-67
2022/07/26 02:13:49;;;;;;;2.95;2.70;;;19.00;99.90;;;;;;604878;237;26586;-66
2022/07/26 02:16:16;;;;;;;3.15;2.90;;;19.00;99.90;;;;;;604740;237;26579;-66
2022/07/26 02:18:44;;;;;;;3.17;2.90;;;19.10;99.90;;;;;;604705;238;26579;-66
2022/07/26 02:21:12;;;;;;;3.20;3.00;;;19.00;99.90;;;;;;604671;237;26583;-67
2022/07/26 02:23:39;;;;;;;3.25;2.95;;;19.20;99.90;;;;;;604686;238;26609;-67
2022/07/26 02:26:06;;;;;;;2.85;2.65;;;19.20;99.90;;;;;;604741;238;26810;-67
2022/07/26 02:28:33;;;;;;;3.17;2.87;;;19.20;99.90;;;;;;604651;237;26602;-66
2022/07/26 02:31:00;;;;;;;3.42;3.10;;;19.20;99.90;;;;;;604470;238;26800;-67
2022/07/26 02:33:28;;;;;;;3.58;3.05;;;19.20;99.90;;;;;;604498;238;26627;-67
2022/07/26 02:35:55;;;;;;;3.92;3.45;;;19.10;99.90;;;;;;604611;238;26991;-67
2022/07/26 02:38:22;;;;;;;3.85;3.40;;;19.00;99.90;;;;;;604650;238;26587;-67
2022/07/26 02:40:51;;;;;;;3.53;3.15;;;19.00;99.90;;;;;;604711;234;27267;-67
2022/07/26 02:43:16;;;;;;;3.53;3.20;;;18.90;99.90;;;;;;604649;238;26623;-67
2022/07/26 02:45:44;;;;;;;3.97;3.58;;;18.80;99.90;;;;;;604680;237;26837;-67
2022/07/26 02:48:11;;;;;;;4.05;3.72;;;18.70;99.90;;;;;;604724;237;26579;-67
2022/07/26 02:50:38;;;;;;;7.35;3.35;;;18.70;99.90;;;;;;606382;235;26808;-67
2022/07/26 02:53:05;;;;;;;3.37;3.05;;;18.70;99.90;;;;;;605826;237;26650;-66
2022/07/26 02:55:32;;;;;;;3.70;2.97;;;18.60;99.90;;;;;;605635;237;26943;-67
2022/07/26 02:58:00;;;;;;;3.08;2.80;;;18.60;99.90;;;;;;605497;234;26587;-67
2022/07/26 03:00:28;;;;;;;3.28;3.08;;;18.60;99.90;;;;;;605329;238;26600;-66
2022/07/26 03:02:56;;;;;;;3.20;3.00;;;18.50;99.90;;;;;;605267;238;26617;-68
2022/07/26 03:05:25;;;;;;;3.55;3.25;;;18.50;99.90;;;;;;605316;238;26578;-67
2022/07/26 03:07:52;;;;;;;3.28;3.03;;;18.40;99.90;;;;;;605093;238;26632;-68
2022/07/26 03:10:19;;;;;;;3.30;3.00;;;18.50;99.90;;;;;;605007;238;26831;-67
2022/07/26 03:12:47;;;;;;;3.60;2.92;;;18.50;99.90;;;;;;604954;237;26787;-68
2022/07/26 03:15:15;;;;;;;3.28;2.97;;;18.50;99.90;;;;;;604972;238;26583;-67
2022/07/26 03:17:44;;;;;;;3.33;3.03;;;18.50;99.90;;;;;;605027;237;26586;-67
2022/07/26 03:20:12;;;;;;;2.97;2.70;;;18.40;99.90;;;;;;605049;232;26584;-67
2022/07/26 03:22:39;;;;;;;3.10;2.80;;;18.50;99.90;;;;;;605002;237;26851;-67
2022/07/26 03:25:06;;;;;;;3.78;2.75;;;18.50;99.90;;;;;;604890;238;26594;-67
2022/07/26 03:27:35;;;;;;;3.15;2.85;;;18.40;99.90;;;;;;604706;238;26599;-67
2022/07/26 03:30:03;;;;;;;3.47;3.03;;;18.40;99.90;;;;;;604751;238;26600;-67
2022/07/26 03:32:30;;;;;;;3.83;2.67;;;18.40;99.90;;;;;;604590;238;26597;-67
2022/07/26 03:34:58;;;;;;;3.00;2.65;;;18.40;99.90;;;;;;604743;235;26579;-67
2022/07/26 03:37:25;;;;;;;3.03;2.62;;;18.40;99.90;;;;;;604731;238;26943;-67
2022/07/26 03:39:54;;;;;;;3.00;2.80;;;18.40;99.90;;;;;;604796;238;26602;-67
2022/07/26 03:42:20;;;;;;;3.28;3.08;;;18.40;99.90;;;;;;604572;238;26864;-67
2022/07/26 03:44:47;;;;;;;3.37;3.03;;;18.50;99.90;;;;;;604704;237;26585;-67
2022/07/26 03:47:14;;;;;;;5.18;3.00;;;18.40;99.90;;;;;;604740;237;26822;-67
2022/07/26 03:49:41;;;;;;;2.62;2.42;;;18.40;99.90;;;;;;604792;237;26581;-67
2022/07/26 03:52:09;;;;;;;3.03;2.72;;;18.50;99.90;;;;;;604694;235;26872;-66
2022/07/26 03:54:36;;;;;;;3.28;2.92;;;18.50;99.90;;;;;;604668;238;26598;-66
2022/07/26 03:57:03;;;;;;;3.30;2.97;;;18.50;99.90;;;;;;604737;237;26789;-66
2022/07/26 03:59:30;;;;;;;2.85;2.65;;;18.50;99.90;;;;;;604697;237;26608;-66
2022/07/26 04:01:57;;;;;;;3.90;2.45;;;18.50;99.90;;;;;;606255;235;26813;-66
2022/07/26 04:04:25;;;;;;;2.80;2.60;;;18.50;99.90;;;;;;605887;237;26651;-68
2022/07/26 04:06:55;;;;;;;3.05;2.65;;;18.50;99.90;;;;;;605542;237;26634;-67
2022/07/26 04:09:21;;;;;;;2.97;2.40;;;18.50;99.90;;;;;;605389;237;26587;-66
2022/07/26 04:11:49;;;;;;;4.68;2.78;;;18.50;99.90;;;;;;605219;238;26602;-66
2022/07/26 04:14:16;;;;;;;3.80;2.70;;;18.50;99.90;;;;;;605298;237;26821;-67
2022/07/26 04:16:43;;;;;;;2.83;2.50;;;18.50;99.90;;;;;;605325;238;26578;-66
2022/07/26 04:19:10;;;;;;;2.85;2.20;;;18.50;99.90;;;;;;605158;237;26868;-66
2022/07/26 04:21:38;;;;;;;2.92;2.58;;;18.50;99.90;;;;;;604957;232;26585;-66
2022/07/26 04:24:06;;;;;;;2.65;2.30;;;18.50;99.90;;;;;;605335;238;26598;-67
2022/07/26 04:26:34;;;;;;;2.78;2.42;;;18.50;99.90;;;;;;605383;238;26566;-67
2022/07/26 04:29:02;;;;;;;4.82;2.28;;;18.50;99.90;;;;;;605394;238;26551;-67
2022/07/26 04:31:30;;;;;;;4.00;2.85;;;18.50;99.90;;;;;;605185;237;26589;-67
2022/07/26 04:33:57;;;;;;;2.20;2.00;;;18.50;99.90;;;;;;604922;237;26865;-67
2022/07/26 04:36:25;;;;;;;2.05;1.85;;;18.50;99.90;;;;;;604914;237;26578;-67
2022/07/26 04:38:53;;;;;;;3.35;2.08;;;18.50;99.90;;;;;;604715;238;26582;-66
2022/07/26 04:41:21;;;;;;;3.75;2.37;;;18.50;99.90;;;;;;604701;237;26591;-67
2022/07/26 04:43:49;;;;;;;2.53;2.10;;;18.50;99.90;;;;;;604640;238;26616;-68
2022/07/26 04:46:18;;;;;;;2.25;2.05;;;18.50;99.90;;;;;;604759;237;26575;-66
2022/07/26 04:48:44;;;;;;;3.53;2.00;;;18.50;99.90;;;;;;604703;238;26597;-66
2022/07/26 04:51:12;;;;;;;4.25;2.10;;;18.60;99.90;;;;;;604783;238;26587;-66
2022/07/26 04:53:39;;;;;;;2.45;2.25;;;18.70;99.90;;;;;;604792;237;26896;-67
2022/07/26 04:56:06;;;;;;;2.40;2.20;;;18.70;99.90;;;;;;604799;238;26559;-67
2022/07/26 04:58:33;;;;;;;2.45;2.05;;;18.80;99.90;;;;;;604757;238;26591;-67
2022/07/26 05:01:01;;;;;;;4.00;2.40;;;18.90;99.90;;;;;;604709;238;26834;-67
2022/07/26 05:03:28;;;;;;;3.15;2.30;;;19.00;99.90;;;;;;604739;238;26626;-66
2022/07/26 05:05:55;;;;;;;2.78;2.40;;;19.00;99.90;;;;;;604687;237;27239;-67
2022/07/26 05:08:22;;;;;;;4.75;2.50;;;19.00;99.90;;;;;;604735;237;26582;-67
2022/07/26 05:10:49;;;;;;;3.85;2.25;;;19.10;99.90;;;;;;604751;237;26834;-67
2022/07/26 05:13:17;;;;;;;3.20;2.58;;;19.10;99.90;;;;;;606096;235;26613;-67
2022/07/26 05:15:44;;;;;;;3.35;2.47;;;19.10;99.90;;;;;;605902;237;26860;-67
2022/07/26 05:18:11;;;;;;;4.62;2.58;;;19.10;99.90;;;;;;605609;237;26577;-67
2022/07/26 05:20:38;;;;;;;2.83;2.47;;;19.10;99.90;;;;;;605526;237;26582;-67
2022/07/26 05:23:06;;;;;;;4.28;2.20;;;19.10;99.90;;;;;;605265;238;26618;-67
2022/07/26 05:25:34;;;;;;;2.50;2.25;;;19.20;99.90;;;;;;605311;237;26636;-69
2022/07/26 05:28:02;;;;;;;4.05;2.55;;;19.30;99.90;;;;;;607733;235;26642;-67
2022/07/26 05:30:30;;;;;;;2.60;2.40;;;19.30;99.90;;;;;;604885;232;26612;-67
2022/07/26 05:32:58;;;;;;;3.12;1.90;;;19.40;99.90;;;;;;604707;236;26604;-67
2022/07/26 05:35:25;;;;;;;4.22;2.33;;;19.40;99.90;;;;;;603301;237;26815;-67
2022/07/26 05:37:53;;;;;;;2.95;2.17;;;19.40;99.90;;;;;;603426;237;26570;-67
2022/07/26 05:40:21;;;;;;;4.80;2.62;;;19.50;99.90;;;;;;605027;236;26590;-68
2022/07/26 05:42:48;;;;;;;2.83;2.60;;;19.50;99.90;;;;;;604518;236;26631;-67
2022/07/26 05:45:15;;;;;;;3.47;2.55;;;19.50;99.90;;;;;;605755;235;26592;-66
2022/07/26 05:47:42;;;;;;;3.40;2.42;;;19.50;99.90;;;;;;605024;235;26816;-66
2022/07/26 05:50:10;;;;;;;2.55;2.35;;;19.60;99.90;;;;;;606274;235;26591;-67
2022/07/26 05:52:37;;;;;;;2.67;2.30;;;19.70;99.90;;;;;;604641;232;26617;-67
2022/07/26 05:55:06;;;;;;;3.95;2.00;;;19.90;99.90;;;;;;607093;235;26879;-67
2022/07/26 05:57:33;;;;;;;4.32;2.30;;;20.00;99.90;;;;;;605082;236;26592;-67
2022/07/26 06:00:01;;;;;;;2.30;1.87;;;20.00;99.90;;;;;;606843;235;26652;-67
2022/07/26 06:02:28;;;;;;;4.62;2.10;;;19.90;99.90;;;;;;606032;230;26637;-67
2022/07/26 06:04:55;;;;;;;9.18;2.20;;;20.00;99.70;;;;;;603560;236;26631;-66
2022/07/26 06:07:23;;;;;;;11.07;2.33;;;20.20;98.70;;;;;;605239;236;26605;-67
2022/07/26 06:09:50;;;;;;;6.18;2.20;;;20.50;98.40;;;;;;603843;236;26558;-67
2022/07/26 06:12:17;;;;;;;3.47;1.95;;;20.50;97.80;;;;;;604034;238;26622;-68
2022/07/26 06:14:45;;;;;;;3.70;2.03;;;20.70;96.60;;;;;;604706;237;26602;-67
2022/07/26 06:17:13;;;;;;;4.78;2.20;;;20.70;96.60;;;;;;604393;235;26604;-67
2022/07/26 06:19:40;;;;;;;8.20;2.70;;;20.60;96.60;;;;;;604701;234;26581;-66
2022/07/26 06:22:07;;;;;;;4.35;2.15;;;20.70;96.70;;;;;;607564;236;26619;-66
2022/07/26 06:24:34;;;;;;;3.28;2.03;;;20.60;95.90;;;;;;607158;235;26644;-66
2022/07/26 06:27:02;;;;;;;3.72;2.28;;;20.70;95.50;;;;;;610336;234;26823;-65
2022/07/26 06:29:29;;;;;;;6.72;2.75;;;20.80;95.60;;;;;;607123;235;26613;-67
2022/07/26 06:31:56;;;;;;;4.68;2.35;;;20.80;95.00;;;;;;608377;235;26887;-67
2022/07/26 06:34:23;;;;;;;5.25;2.17;;;20.90;95.00;;;;;;605316;234;26545;-66
2022/07/26 06:36:50;;;;;;;7.05;2.62;;;21.10;94.50;;;;;;609280;235;26814;-66
2022/07/26 06:39:18;;;;;;;5.43;2.10;;;21.30;93.90;;;;;;602210;235;26628;-66
2022/07/26 06:41:45;;;;;;;6.20;2.10;;;21.30;93.60;;;;;;603285;235;26902;-66
2022/07/26 06:44:13;;;;;;;4.55;2.62;;;21.20;93.80;;;;;;608058;236;26599;-66
2022/07/26 06:46:40;;;;;;;7.80;2.37;;;21.10;94.00;;;;;;606216;236;26831;-66
2022/07/26 06:49:07;;;;;;;3.37;1.80;;;21.10;93.70;;;;;;605024;238;26589;-66
2022/07/26 06:51:34;;;;;;;2.67;1.75;;;21.10;93.70;;;;;;606597;236;26826;-66
2022/07/26 06:54:02;;;;;;;5.12;2.25;;;21.10;93.50;;;;;;610212;232;26647;-66
2022/07/26 06:56:29;;;;;;;3.95;2.10;;;21.10;93.10;;;;;;604520;236;27110;-66
2022/07/26 06:58:56;;;;;;;4.22;1.98;;;21.10;93.10;;;;;;602067;238;26583;-65
2022/07/26 07:01:23;;;;;;;3.95;1.95;;;21.20;92.70;;;;;;603920;237;26935;-65
2022/07/26 07:03:51;;;;;;;2.67;1.55;;;21.30;92.20;;;;;;601558;237;26597;-66
2022/07/26 07:06:19;;;;;;;2.22;1.48;;;21.40;92.20;;;;;;601636;238;26589;-66
2022/07/26 07:08:48;;;;;;;7.00;2.15;;;21.10;91.80;;;;;;601612;238;26596;-66
2022/07/26 07:11:15;;;;;;;4.07;1.75;;;21.10;91.50;;;;;;610961;235;26695;-66
2022/07/26 07:13:43;;;;;;;3.55;1.80;;;21.00;91.30;;;;;;606659;235;26607;-66
2022/07/26 07:16:10;;;;;;;2.60;1.67;;;21.00;91.30;;;;;;606408;235;26941;-66
2022/07/26 07:18:37;;;;;;;1.50;1.40;;;21.00;91.20;;;;;;601653;233;26638;-66
2022/07/26 07:21:05;;;;;;;3.20;1.48;;;21.00;91.20;;;;;;601577;236;26937;-67
2022/07/26 07:23:32;;;;;;;3.78;1.92;;;21.20;90.80;;;;;;604476;235;26582;-66
2022/07/26 07:26:00;;;;;;;3.50;1.73;;;21.10;91.00;;;;;;603713;238;26583;-66
2022/07/26 07:28:28;;;;;;;4.32;1.80;;;21.10;91.30;;;;;;603593;238;26587;-69
2022/07/26 07:30:57;;;;;;;2.78;1.62;;;21.20;91.00;;;;;;609496;235;26671;-65
2022/07/26 07:33:25;;;;;;;3.55;1.75;;;21.30;90.60;;;;;;604721;238;26583;-65
2022/07/26 07:35:52;;;;;;;8.45;1.90;;;21.30;90.60;;;;;;604387;234;26622;-65
2022/07/26 07:38:20;;;;;;;3.35;1.00;;;21.50;90.50;;;;;;608175;235;26594;-65
2022/07/26 07:40:48;;;;;;;3.37;1.48;;;21.50;89.20;;;;;;603791;235;26858;-66
2022/07/26 07:43:16;;;;;;;1.73;1.50;;;21.70;89.10;;;;;;602482;238;26799;-65
2022/07/26 07:45:43;;;;;;;5.32;1.62;;;21.70;89.10;;;;;;605286;235;26797;-66
2022/07/26 07:48:10;;;;;;;1.67;1.20;;;21.70;88.10;;;;;;603688;235;26627;-66
2022/07/26 07:50:37;;;;;;;3.20;1.50;;;21.80;87.40;;;;;;605256;237;27239;-66
2022/07/26 07:53:04;;;;;;;2.47;1.75;;;22.10;86.00;;;;;;607105;235;26636;-66
2022/07/26 07:55:32;;;;;;;4.25;1.77;;;22.30;84.30;;;;;;604391;236;26814;-66
2022/07/26 07:58:00;;;;;;;4.43;1.70;;;23.00;81.80;;;;;;606410;235;26612;-65
2022/07/26 08:00:27;;;;;;;3.62;1.80;;;23.10;80.00;;;;;;606662;236;26581;-66
2022/07/26 08:02:55;;;;;;;1.92;1.35;;;23.10;79.80;;;;;;604916;236;26617;-66
2022/07/26 08:05:23;;;;;;;4.25;1.60;;;23.20;78.80;;;;;;603134;237;26604;-66
2022/07/26 08:07:51;;;;;;;2.15;1.37;;;23.10;78.10;;;;;;601932;238;26582;-66
2022/07/26 08:10:19;;;;;;;5.87;1.80;;;23.10;76.90;;;;;;607157;236;26603;-66
2022/07/26 08:12:47;;;;;;;1.58;1.30;;;23.00;77.00;;;;;;604772;235;26609;-65
2022/07/26 08:15:14;;;;;;;2.40;1.25;;;23.20;77.40;;;;;;604107;236;26596;-66
2022/07/26 08:17:42;;;;;;;2.12;1.17;;;23.50;75.40;;;;;;606877;235;26873;-65
2022/07/26 08:20:11;;;;;;;3.75;1.30;;;23.50;75.40;;;;;;604241;236;26808;-65
2022/07/26 08:22:38;;;;;;;1.42;1.12;;;23.40;74.60;;;;;;603668;236;26605;-65
2022/07/26 08:25:06;;;;;;;1.95;1.20;;;23.00;75.20;;;;;;606342;236;26794;-65
2022/07/26 08:27:33;;;;;;;2.30;1.45;;;22.80;75.40;;;;;;601671;239;26602;-66
2022/07/26 08:30:00;;;;;;;3.53;1.33;;;22.70;76.40;;;;;;601857;238;26978;-66
2022/07/26 08:32:27;;;;;;;2.20;1.10;;;22.70;76.60;;;;;;602606;235;26623;-66
2022/07/26 08:34:54;;;;;;;1.83;1.30;;;22.50;77.00;;;;;;601691;239;27313;-66
2022/07/26 08:37:22;;;;;;;1.83;1.20;;;22.60;76.90;;;;;;603015;238;26579;-66
2022/07/26 08:39:49;;;;;;;1.15;1.00;;;22.60;76.90;;;;;;603417;237;27212;-66
2022/07/26 08:42:16;;;;;;;2.28;1.30;;;22.50;76.60;;;;;;601671;239;26648;-66
2022/07/26 08:44:43;;;;;;;2.58;1.42;;;22.30;77.00;;;;;;603293;236;26817;-66
2022/07/26 08:47:12;;;;;;;1.85;1.20;;;22.30;76.60;;;;;;605345;234;26547;-66
2022/07/26 08:49:39;;;;;;;1.83;1.20;;;22.30;76.60;;;;;;606306;234;26645;-66
2022/07/26 08:52:06;;;;;;;3.75;1.37;;;22.30;76.40;;;;;;605539;232;26914;-66
2022/07/26 08:54:34;;;;;;;3.47;1.25;;;22.30;76.20;;;;;;602393;237;26586;-65
2022/07/26 08:57:01;;;;;;;5.00;1.70;;;22.30;76.20;;;;;;607280;234;27026;-67
2022/07/26 08:59:29;;;;;;;66.10;11.93;;;22.30;75.70;;;;;;602243;239;26640;-65
2022/07/26 09:01:57;;;;;;;104.75;20.37;;;22.30;76.10;;;;;;602115;239;26955;-66
2022/07/26 09:04:25;;;;;;;132.57;27.42;;;22.20;75.80;;;;;;602174;239;26852;-65
2022/07/26 09:06:54;;;;;;;125.62;24.58;;;22.40;73.70;;;;;;601865;238;26577;-65
2022/07/26 09:09:21;;;;;;;80.82;19.37;;;22.60;73.40;;;;;;602735;234;26596;-70
2022/07/26 09:11:48;;;;;;;47.45;11.25;;;22.70;72.10;;;;;;604144;236;26891;-71
2022/07/26 09:14:16;;;;;;;39.35;10.73;;;23.10;71.60;;;;;;601927;237;26582;-71
2022/07/26 09:16:43;;;;;;;35.88;9.10;;;23.40;70.20;;;;;;601876;238;26581;-70
2022/07/26 09:19:14;;;;;;;23.95;5.87;;;23.70;68.70;;;;;;608728;235;26627;-70
2022/07/26 09:21:41;;;;;;;17.30;4.78;;;24.00;67.50;;;;;;604331;232;26573;-70
2022/07/26 09:24:08;;;;;;;3.50;1.80;;;23.80;66.60;;;;;;605441;236;26825;-70
2022/07/26 09:26:35;;;;;;;9.88;2.83;;;23.60;66.60;;;;;;602091;238;26557;-71
2022/07/26 09:29:06;;;;;;;8.23;2.42;;;23.50;67.10;;;;;;603894;238;26546;-71
2022/07/26 09:31:34;;;;;;;5.47;2.47;;;23.60;67.20;;;;;;602653;238;26547;-71
2022/07/26 09:34:01;;;;;;;2.75;2.00;;;24.00;66.70;;;;;;602472;236;27109;-71
2022/07/26 09:36:28;;;;;;;3.85;1.80;;;23.70;67.00;;;;;;605649;235;26616;-70
2022/07/26 09:38:57;;;;;;;4.70;1.50;;;23.40;68.10;;;;;;611512;235;26829;-70
2022/07/26 09:41:25;;;;;;;2.28;1.30;;;23.20;68.90;;;;;;610976;235;26647;-70
2022/07/26 09:43:51;;;;;;;1.37;1.20;;;23.10;69.10;;;;;;604889;238;26590;-71
2022/07/26 09:46:19;;;;;;;2.78;1.20;;;23.00;70.10;;;;;;609585;235;26649;-70
2022/07/26 09:48:47;;;;;;;1.75;1.00;;;23.50;69.80;;;;;;604796;235;26574;-70
2022/07/26 09:51:14;;;;;;;1.37;1.27;;;23.40;69.60;;;;;;612126;234;26611;-70
2022/07/26 09:53:44;;;;;;;2.87;1.40;;;23.80;68.70;;;;;;603689;234;26978;-70
2022/07/26 09:56:12;;;;;;;3.55;1.30;;;24.60;64.70;;;;;;602251;235;26594;-70
2022/07/26 09:58:40;;;;;;;1.23;1.10;;;25.10;62.20;;;;;;605177;235;26588;-70
2022/07/26 10:01:08;;;;;;;2.15;1.02;;;25.20;60.80;;;;;;607378;235;26673;-70
2022/07/26 10:03:35;;;;;;;4.22;1.33;;;25.10;59.90;;;;;;608281;235;26653;-70
2022/07/26 10:06:03;;;;;;;1.25;0.90;;;24.70;60.10;;;;;;604130;235;26582;-70
2022/07/26 10:08:30;;;;;;;2.33;1.10;;;24.40;61.70;;;;;;608843;235;26565;-70
2022/07/26 10:11:01;;;;;;;1.70;1.50;;;24.30;62.20;;;;;;603522;238;26673;-70
2022/07/26 10:13:30;;;;;;;2.42;1.05;;;24.40;61.60;;;;;;607904;235;26667;-70
2022/07/26 10:15:57;;;;;;;1.40;0.70;;;24.30;61.90;;;;;;603362;235;26606;-71
2022/07/26 10:18:43;;;;;;;1.23;1.00;;;24.70;62.60;;;;;;607313;235;26635;-71
2022/07/26 10:21:22;;;;;;;2.03;0.95;;;24.70;62.40;;;;;;603386;238;26590;-71
2022/07/26 10:23:56;;;;;;;1.65;1.00;;;24.70;61.60;;;;;;601911;238;26599;-71
2022/07/26 10:26:34;;;;;;;1.80;0.82;;;24.60;61.70;;;;;;607279;235;26883;-71
2022/07/26 10:29:18;;;;;;;0.77;0.77;;;24.70;61.10;;;;;;603143;238;26896;-71
2022/07/26 10:31:46;;;;;;;0.90;0.90;;;24.80;61.00;;;;;;608642;236;26622;-71
2022/07/26 10:34:32;;;;;;;1.37;0.98;;;24.70;60.90;;;;;;602633;236;27250;-71
2022/07/26 10:36:59;;;;;;;2.33;1.10;;;24.70;60.30;;;;;;603169;236;26579;-71
2022/07/26 10:39:26;;;;;;;1.17;0.95;;;24.50;59.90;;;;;;603441;235;26820;-71
2022/07/26 10:41:59;;;;;;;0.77;0.77;;;24.90;60.00;;;;;;608865;236;26579;-71
2022/07/26 10:44:26;;;;;;;1.05;0.95;;;25.00;59.50;;;;;;608614;235;26635;-77
2022/07/26 10:46:58;;;;;;;1.33;1.20;;;24.00;61.30;;;;;;606743;236;26654;-70
2022/07/26 10:49:33;;;;;;;1.30;1.20;;;24.00;61.30;;;;;;601512;235;26786;-70
2022/07/26 10:52:09;;;;;;;2.20;1.25;;;23.60;62.40;;;;;;608506;235;26660;-71
2022/07/26 10:54:48;;;;;;;0.93;0.80;;;24.20;62.70;;;;;;607797;235;26677;-70
2022/07/26 10:57:17;;;;;;;1.05;0.90;;;24.40;61.40;;;;;;603562;235;26619;-72
2022/07/26 10:59:45;;;;;;;1.48;0.90;;;24.60;60.10;;;;;;603847;237;26577;-72
2022/07/26 11:02:18;;;;;;;0.88;0.82;;;24.60;60.20;;;;;;602115;237;26652;-71
2022/07/26 11:04:45;;;;;;;1.77;0.90;;;24.60;60.20;;;;;;603587;233;26818;-72
2022/07/26 11:07:13;;;;;;;1.33;1.23;;;24.80;60.10;;;;;;601784;235;26581;-72
2022/07/26 11:09:40;;;;;;;0.95;0.95;;;25.10;60.20;;;;;;602013;237;26605;-72
2022/07/26 11:12:14;;;;;;;2.47;1.00;;;25.50;59.40;;;;;;603213;235;26628;-72
2022/07/26 11:14:41;;;;;;;1.75;1.00;;;25.40;59.40;;;;;;604809;237;26966;-72
2022/07/26 11:17:08;;;;;;;4.20;1.75;;;25.60;58.80;;;;;;604209;235;26593;-72
2022/07/26 11:19:38;;;;;;;2.83;1.10;;;25.60;58.30;;;;;;604569;235;26644;-72
2022/07/26 11:22:06;;;;;;;1.92;1.37;;;26.20;58.00;;;;;;605069;235;27319;-73
2022/07/26 11:24:33;;;;;;;2.20;1.17;;;26.60;57.20;;;;;;608542;235;26569;-72
2022/07/26 11:27:02;;;;;;;1.85;1.08;;;27.00;57.20;;;;;;603030;238;26875;-70
2022/07/26 11:29:29;;;;;;;2.30;1.30;;;26.90;57.10;;;;;;604965;237;26573;-72
2022/07/26 11:31:56;;;;;;;2.85;1.10;;;27.30;56.20;;;;;;604692;238;26857;-72
2022/07/26 11:34:23;;;;;;;1.55;1.00;;;27.30;55.80;;;;;;611042;234;26606;-72
2022/07/26 11:36:52;;;;;;;0.93;0.77;;;27.00;55.40;;;;;;608350;236;26618;-72
2022/07/26 11:39:22;;;;;;;1.35;1.10;;;26.70;56.30;;;;;;609352;235;26783;-72
2022/07/26 11:41:49;;;;;;;2.72;1.50;;;26.20;56.80;;;;;;606701;235;26818;-73
2022/07/26 11:44:18;;;;;;;1.58;1.17;;;26.30;57.00;;;;;;602014;237;26610;-72
2022/07/26 11:46:46;;;;;;;1.50;1.37;;;26.20;56.70;;;;;;602685;238;26575;-72
2022/07/26 11:49:14;;;;;;;1.62;0.93;;;26.20;56.40;;;;;;603148;238;26582;-72
2022/07/26 11:51:52;;;;;;;1.45;1.12;;;25.70;56.60;;;;;;603861;236;26610;-72
2022/07/26 11:54:19;;;;;;;1.23;1.10;;;25.90;56.30;;;;;;607183;235;27118;-72
2022/07/26 11:56:50;;;;;;;2.33;1.12;;;25.80;55.70;;;;;;607177;236;26640;-72
2022/07/26 11:59:17;;;;;;;1.60;1.15;;;25.80;56.10;;;;;;606158;236;26863;-72
2022/07/26 12:01:44;;;;;;;2.85;1.00;;;25.80;55.70;;;;;;611890;235;26640;-72
2022/07/26 12:04:17;;;;;;;2.00;1.37;;;26.00;55.70;;;;;;602506;235;26940;-71
2022/07/26 12:06:44;;;;;;;3.35;1.30;;;26.00;56.10;;;;;;602566;238;26613;-73
2022/07/26 12:09:11;;;;;;;1.62;1.30;;;25.30;56.90;;;;;;604694;237;26848;-71
2022/07/26 12:11:40;;;;;;;8.15;1.58;;;24.70;57.60;;;;;;604398;237;26570;-71
2022/07/26 12:14:05;;;;;;;2.28;1.30;;;24.30;57.40;;;;;;604081;238;26805;-71
2022/07/26 12:16:41;;;;;;;2.65;1.20;;;24.00;56.70;;;;;;601645;235;26569;-71
2022/07/26 12:19:08;;;;;;;1.35;1.10;;;23.90;56.50;;;;;;603673;236;26831;-71
2022/07/26 12:21:38;;;;;;;2.83;1.10;;;23.70;56.50;;;;;;604238;235;26584;-71
2022/07/26 12:24:05;;;;;;;2.58;1.10;;;23.50;58.70;;;;;;603535;236;26665;-71
2022/07/26 12:26:32;;;;;;;4.22;1.40;;;23.10;62.40;;;;;;604902;237;26649;-71
2022/07/26 12:29:23;;;;;;;2.92;1.40;;;21.90;74.60;;;;;;606000;235;26581;-70
2022/07/26 12:31:28;;;;;;;1.00;1.00;;;21.20;78.30;;;;;;603399;235;26617;-71
2022/07/26 12:33:56;;;;;;;1.70;1.20;;;21.20;78.30;;;;;;604649;235;26700;-70
2022/07/26 12:36:23;;;;;;;1.42;1.00;;;20.40;92.00;;;;;;602726;237;26665;-71
2022/07/26 12:38:51;;;;;;;2.70;1.30;;;20.10;94.80;;;;;;604149;237;26874;-70
2022/07/26 12:41:30;;;;;;;3.33;1.33;;;19.80;99.10;;;;;;601936;239;26586;-70
2022/07/26 12:43:58;;;;;;;3.53;1.25;;;19.50;99.90;;;;;;604412;235;26640;-71
2022/07/26 12:46:24;;;;;;;1.83;1.30;;;19.00;99.90;;;;;;601705;239;26613;-71
2022/07/26 12:48:51;;;;;;;1.75;1.35;;;18.60;99.90;;;;;;601899;238;26623;-71